Time;durP1;ratioP1;P1;durP2;ratioP2;P2;SDS_P1;SDS_P2;PMS_P1;PMS_P2;Temp;Humidity;BMP_temperature;BMP_pressure;BME280_temperature;BME280_humidity;BME280_pressure;Samples;Min_cycle;Max_cycle;Signal;HPM_P1;HPM_P2
2022/07/31 00:02:08;;;;;;;15.88;7.05;;;;;;;20.98;92.41;100782.05;1710547;83;27901;-62
2022/07/31 00:04:35;;;;;;;16.95;7.03;;;;;;;21.01;93.02;100775.34;1710554;83;25698;-62
2022/07/31 00:07:02;;;;;;;14.23;6.28;;;;;;;21.00;93.06;100775.02;1710596;83;25994;-62
2022/07/31 00:09:29;;;;;;;18.62;5.85;;;;;;;21.04;95.12;100758.50;1710357;83;25857;-62
2022/07/31 00:11:56;;;;;;;11.10;5.97;;;;;;;21.03;93.73;100752.71;1710648;83;25701;-61
2022/07/31 00:14:23;;;;;;;16.25;6.20;;;;;;;21.07;93.94;100745.26;1711574;83;27582;-61
2022/07/31 00:16:50;;;;;;;18.35;6.37;;;;;;;21.10;94.27;100744.86;1713264;83;25780;-62
2022/07/31 00:19:16;;;;;;;19.80;6.78;;;;;;;21.08;97.49;100741.48;1713526;83;25833;-62
2022/07/31 00:21:44;;;;;;;15.05;6.25;;;;;;;20.93;96.68;100751.21;1713563;83;25841;-62
2022/07/31 00:24:13;;;;;;;14.70;6.53;;;;;;;20.87;96.80;100752.05;1713863;83;26044;-62
2022/07/31 00:26:40;;;;;;;14.25;6.40;;;;;;;20.83;96.67;100752.16;1713667;83;27510;-62
2022/07/31 00:29:07;;;;;;;16.02;6.80;;;;;;;20.79;97.99;100742.66;1713855;83;26001;-62
2022/07/31 00:31:34;;;;;;;12.88;5.60;;;;;;;20.67;97.65;100742.37;1714115;83;25896;-62
2022/07/31 00:34:01;;;;;;;8.08;5.80;;;;;;;20.63;99.26;100743.81;1713722;83;25856;-62
2022/07/31 00:36:27;;;;;;;14.15;6.58;;;;;;;;;;1718404;83;25748;-62
2022/07/31 00:38:54;;;;;;;19.23;6.72;;;;;;;20.57;97.11;100742.77;1718808;83;27552;-62
2022/07/31 00:41:21;;;;;;;13.83;6.60;;;;;;;20.62;96.37;100745.72;1718246;83;25847;-62
2022/07/31 00:43:48;;;;;;;11.00;5.45;;;;;;;20.68;96.20;100741.84;1718575;83;25697;-62
2022/07/31 00:46:15;;;;;;;11.63;5.78;;;;;;;20.68;97.12;100748.67;1723806;82;25815;-62
2022/07/31 00:48:42;;;;;;;10.93;5.70;;;;;;;20.63;96.15;100754.24;1731152;81;25731;-62
2022/07/31 00:51:09;;;;;;;9.38;6.30;;;;;;;20.68;95.80;100760.97;1731141;82;27491;-62
2022/07/31 00:53:36;;;;;;;12.82;5.67;;;;;;;20.73;95.74;100757.98;1730799;81;25784;-61
2022/07/31 00:56:04;;;;;;;12.60;6.55;;;;;;;20.81;95.22;100759.70;1725919;82;25757;-62
2022/07/31 00:58:31;;;;;;;12.47;5.72;;;;;;;20.86;95.09;100757.19;1718233;83;25786;-62
2022/07/31 01:01:01;;;;;;;10.68;5.90;;;;;;;20.95;95.39;100755.13;1723224;82;25807;-62
2022/07/31 01:03:27;;;;;;;7.25;5.20;;;;;;;20.99;95.02;100758.30;1731101;82;27470;-62
2022/07/31 01:05:54;;;;;;;12.28;5.28;;;;;;;20.97;94.81;100752.18;1730972;81;25735;-62
2022/07/31 01:08:21;;;;;;;7.83;5.28;;;;;;;20.99;94.82;100750.92;1730983;82;25530;-62
2022/07/31 01:11:05;;;;;;;8.95;5.85;;;;;;;21.01;94.63;100750.20;1731248;81;26353;-62
2022/07/31 01:13:57;;;;;;;16.70;5.65;;;;;;;21.03;94.58;100748.11;1714046;81;25900;-62
2022/07/31 01:16:30;;;;;;;12.00;5.33;;;;;;;21.09;94.54;100743.70;1715474;82;28170;-62
2022/07/31 01:18:59;;;;;;;13.20;5.80;;;;;;;21.08;94.24;100744.22;1715375;82;25858;-62
2022/07/31 01:21:34;;;;;;;9.45;5.83;;;;;;;21.13;94.41;100740.03;1715788;83;25707;-61
2022/07/31 01:24:44;;;;;;;11.68;6.22;;;;;;;21.17;94.53;100736.67;1715653;82;25793;-62
2022/07/31 01:27:34;;;;;;;13.20;5.35;;;;;;;21.17;94.23;100740.77;1714094;82;25709;-62
2022/07/31 01:30:04;;;;;;;13.18;5.72;;;;;;;21.18;94.79;100734.26;1715811;82;27574;-61
2022/07/31 01:32:37;;;;;;;8.38;5.67;;;;;;;21.19;94.83;100729.11;1696794;83;25854;-62
2022/07/31 01:35:14;;;;;;;12.53;5.97;;;;;;;21.20;94.84;100732.67;1715550;83;25736;-62
2022/07/31 01:37:57;;;;;;;9.03;6.15;;;;;;;21.18;94.28;100734.77;1714953;82;25791;-62
2022/07/31 01:40:34;;;;;;;;;;;;;;;21.21;94.57;100729.72;1718051;82;25448;-62
2022/07/31 01:43:08;;;;;;;13.95;5.95;;;;;;;21.21;93.92;100732.45;1708522;82;28395;-62
2022/07/31 01:45:38;;;;;;;12.65;6.17;;;;;;;21.21;94.15;100726.98;1693011;82;25719;-62
2022/07/31 01:48:10;;;;;;;10.00;6.20;;;;;;;21.25;93.99;100735.11;1715795;83;25762;-62
2022/07/31 01:50:40;;;;;;;11.10;6.15;;;;;;;21.28;94.33;100716.06;1715450;82;26453;-62
2022/07/31 01:53:08;;;;;;;8.45;5.75;;;;;;;21.29;94.03;100724.59;1715907;82;25472;-62
2022/07/31 01:55:38;;;;;;;12.45;6.08;;;;;;;21.30;94.34;100722.67;1722109;82;27471;-62
2022/07/31 01:58:07;;;;;;;10.32;6.58;;;;;;;21.29;94.43;100718.28;1744694;82;25829;-61
2022/07/31 02:00:37;;;;;;;15.05;6.20;;;;;;;21.27;94.30;100713.00;1737922;82;25841;-61
2022/07/31 02:03:06;;;;;;;14.83;7.53;;;;;;;21.32;94.58;100717.34;1715454;83;25866;-62
2022/07/31 02:05:35;;;;;;;17.07;6.33;;;;;;;21.35;94.60;100715.53;1697029;83;25505;-62
2022/07/31 02:08:06;;;;;;;12.50;6.15;;;;;;;21.35;94.14;100716.08;1715436;82;27445;-62
2022/07/31 02:10:35;;;;;;;9.78;5.83;;;;;;;21.41;94.68;100713.86;1715276;83;25750;-62
2022/07/31 02:13:03;;;;;;;14.87;6.70;;;;;;;21.39;94.11;100714.08;1715507;83;25677;-61
2022/07/31 02:15:32;;;;;;;12.13;6.50;;;;;;;21.42;94.47;100710.08;1718976;82;25854;-61
2022/07/31 02:18:00;;;;;;;18.42;6.83;;;;;;;21.45;94.55;100705.56;1722467;83;25789;-62
2022/07/31 02:20:39;;;;;;;11.70;6.35;;;;;;;21.48;94.44;100711.96;1722322;82;27595;-62
2022/07/31 02:23:06;;;;;;;11.45;5.70;;;;;;;21.46;94.52;100700.41;1722176;81;25790;-61
2022/07/31 02:25:36;;;;;;;9.38;6.15;;;;;;;21.41;95.24;100704.28;1722431;83;25718;-62
2022/07/31 02:28:07;;;;;;;9.35;6.08;;;;;;;21.37;94.59;100700.30;1722136;82;25771;-61
2022/07/31 02:30:36;;;;;;;13.30;5.60;;;;;;;21.36;94.28;100708.19;1722384;82;25816;-61
2022/07/31 02:33:07;;;;;;;9.10;5.87;;;;;;;21.30;93.99;100713.10;1722373;82;28504;-61
2022/07/31 02:35:36;;;;;;;10.38;6.35;;;;;;;21.22;93.39;100712.26;1722616;82;25492;-62
2022/07/31 02:38:05;;;;;;;15.20;5.95;;;;;;;21.20;93.75;100712.98;1722288;82;25844;-61
2022/07/31 02:40:32;;;;;;;9.50;6.25;;;;;;;21.26;94.84;100712.17;1722576;82;25829;-61
2022/07/31 02:43:00;;;;;;;9.63;6.45;;;;;;;21.30;95.32;100712.59;1722302;83;25736;-61
2022/07/31 02:45:27;;;;;;;9.53;6.00;;;;;;;21.33;94.93;100706.72;1720768;82;28373;-61
2022/07/31 02:47:54;;;;;;;10.20;5.87;;;;;;;21.39;95.35;100705.01;1740836;82;25472;-61
2022/07/31 02:50:22;;;;;;;9.58;5.80;;;;;;;21.42;95.11;100699.13;1705160;84;25761;-61
2022/07/31 02:52:50;;;;;;;10.35;5.90;;;;;;;21.45;94.82;100700.09;1740840;82;25814;-62
2022/07/31 02:55:18;;;;;;;8.95;6.35;;;;;;;21.44;94.61;100699.77;1730442;82;25681;-62
2022/07/31 02:57:47;;;;;;;12.13;5.95;;;;;;;21.47;95.13;100701.23;1740979;81;28370;-62
2022/07/31 03:00:21;;;;;;;15.05;6.10;;;;;;;21.53;95.28;100696.28;1740808;80;25629;-61
2022/07/31 03:02:54;;;;;;;11.68;5.87;;;;;;;21.50;94.55;100699.45;1741033;81;25443;-63
2022/07/31 03:05:22;;;;;;;12.35;6.00;;;;;;;21.46;93.87;100698.17;1740809;81;25844;-61
2022/07/31 03:07:49;;;;;;;9.20;5.35;;;;;;;21.44;93.92;100694.30;1741169;81;25706;-61
2022/07/31 03:10:17;;;;;;;9.68;5.37;;;;;;;21.43;93.81;100691.23;1740817;81;27611;-61
2022/07/31 03:12:49;;;;;;;9.65;5.15;;;;;;;21.43;93.84;100695.34;1731028;81;25690;-61
2022/07/31 03:15:20;;;;;;;13.95;4.87;;;;;;;21.41;92.99;100701.03;1705078;84;25727;-61
2022/07/31 03:17:48;;;;;;;9.30;4.90;;;;;;;21.31;91.85;100695.13;1740909;81;25696;-61
2022/07/31 03:20:19;;;;;;;8.35;4.10;;;;;;;21.20;90.68;100688.36;1740724;81;25708;-61
2022/07/31 03:22:46;;;;;;;7.72;4.83;;;;;;;21.17;90.58;100688.80;1705313;84;28119;-62
2022/07/31 03:25:16;;;;;;;13.70;4.60;;;;;;;21.13;90.05;100688.06;1705285;84;25709;-62
2022/07/31 03:27:43;;;;;;;8.63;4.58;;;;;;;21.13;90.41;100697.63;1705297;84;25729;-61
2022/07/31 03:30:23;;;;;;;11.83;5.05;;;;;;;21.11;90.18;100692.38;1705120;84;25804;-61
2022/07/31 03:32:47;;;;;;;13.78;4.87;;;;;;;21.10;90.00;100693.43;1683330;84;25807;-62
2022/07/31 03:35:14;;;;;;;8.90;3.67;;;;;;;21.03;89.41;100693.92;1740917;82;27782;-61
2022/07/31 03:37:41;;;;;;;8.35;4.28;;;;;;;20.98;88.51;100693.71;1740907;82;25730;-61
2022/07/31 03:40:10;;;;;;;11.25;4.53;;;;;;;20.94;88.67;100691.92;1741260;82;25700;-61
2022/07/31 03:42:37;;;;;;;17.87;4.53;;;;;;;20.95;88.93;100690.33;1740900;81;25781;-61
2022/07/31 03:45:06;;;;;;;8.50;3.87;;;;;;;20.95;88.90;100684.86;1741030;81;25753;-61
2022/07/31 03:47:33;;;;;;;11.48;4.05;;;;;;;20.89;87.41;100696.64;1732673;82;28405;-61
2022/07/31 03:50:01;;;;;;;6.95;3.80;;;;;;;20.79;86.44;100688.84;1732267;82;25925;-61
2022/07/31 03:52:31;;;;;;;8.35;4.55;;;;;;;20.77;85.93;100684.09;1732552;81;25757;-61
2022/07/31 03:54:59;;;;;;;9.95;4.33;;;;;;;20.75;85.62;100684.82;1732692;82;26413;-62
2022/07/31 03:57:29;;;;;;;12.10;4.20;;;;;;;20.76;83.47;100684.28;1740990;82;26028;-61
2022/07/31 03:59:57;;;;;;;7.95;3.92;;;;;;;20.76;83.39;100686.52;1705085;84;27477;-61
2022/07/31 04:02:28;;;;;;;8.70;3.75;;;;;;;20.76;82.33;100687.02;1724761;82;25717;-61
2022/07/31 04:05:08;;;;;;;12.20;3.65;;;;;;;20.75;83.05;100685.36;1723099;81;25943;-61
2022/07/31 04:07:35;;;;;;;8.43;3.70;;;;;;;20.78;83.27;100687.16;1724842;83;26518;-62
2022/07/31 04:10:06;;;;;;;9.63;3.27;;;;;;;20.82;82.36;100685.36;1724631;81;25816;-62
2022/07/31 04:12:33;;;;;;;4.55;3.30;;;;;;;20.86;82.00;100685.28;1724755;82;27626;-62
2022/07/31 04:15:00;;;;;;;6.12;3.05;;;;;;;20.94;79.90;100682.34;1724584;82;25923;-60
2022/07/31 04:17:27;;;;;;;4.28;3.15;;;;;;;21.02;81.07;100677.22;1724693;82;25746;-60
2022/07/31 04:19:54;;;;;;;11.38;2.95;;;;;;;21.13;80.43;100679.31;1724582;83;25844;-60
2022/07/31 04:22:21;;;;;;;5.78;3.33;;;;;;;21.22;79.28;100679.97;1724456;83;25714;-60
2022/07/31 04:24:49;;;;;;;8.63;3.42;;;;;;;21.34;81.08;100674.71;1724647;83;27499;-60
2022/07/31 04:27:29;;;;;;;8.78;3.20;;;;;;;21.41;78.65;100675.04;1686147;82;25764;-60
2022/07/31 04:29:56;;;;;;;9.63;2.90;;;;;;;21.48;78.83;100665.44;1724586;81;25705;-60
2022/07/31 04:32:24;;;;;;;6.90;3.05;;;;;;;21.52;77.40;100668.08;1724704;83;26535;-60
2022/07/31 04:34:53;;;;;;;5.08;3.00;;;;;;;21.62;76.51;100664.11;1724991;83;25789;-60
2022/07/31 04:37:21;;;;;;;6.72;3.27;;;;;;;21.71;75.77;100670.50;1724531;81;27542;-60
2022/07/31 04:39:48;;;;;;;7.72;3.00;;;;;;;21.80;72.69;100663.44;1724454;83;26129;-62
2022/07/31 04:42:16;;;;;;;5.05;3.12;;;;;;;21.86;71.76;100660.69;1724698;82;25745;-61
2022/07/31 04:44:45;;;;;;;7.22;3.58;;;;;;;21.93;72.37;100659.31;1724974;82;26840;-61
2022/07/31 04:47:12;;;;;;;7.37;3.17;;;;;;;21.95;71.31;100662.69;1724738;83;25748;-62
2022/07/31 04:49:44;;;;;;;9.13;3.10;;;;;;;22.00;71.45;100667.52;1724145;82;27591;-62
2022/07/31 04:52:13;;;;;;;7.10;2.65;;;;;;;22.02;70.45;100664.02;1724404;82;25854;-62
2022/07/31 04:54:42;;;;;;;9.40;2.75;;;;;;;22.08;66.27;100665.05;1724783;82;25678;-62
2022/07/31 04:57:11;;;;;;;4.12;2.83;;;;;;;22.09;64.82;100662.12;1738920;82;25853;-62
2022/07/31 04:59:38;;;;;;;5.78;2.87;;;;;;;22.04;66.19;100661.91;1705176;84;25789;-62
2022/07/31 05:02:06;;;;;;;10.53;2.95;;;;;;;22.02;67.14;100660.77;1726843;82;27469;-62
2022/07/31 05:04:33;;;;;;;11.63;3.00;;;;;;;22.03;68.12;100654.23;1724860;83;25709;-62
2022/07/31 05:07:00;;;;;;;11.68;3.10;;;;;;;22.05;68.99;100663.59;1724526;83;25753;-62
2022/07/31 05:09:32;;;;;;;10.20;3.72;;;;;;;22.07;68.63;100660.13;1724878;83;26579;-62
2022/07/31 05:11:58;;;;;;;10.43;3.20;;;;;;;22.03;67.72;100660.22;1724378;83;25800;-62
2022/07/31 05:14:27;;;;;;;3.65;2.98;;;;;;;22.04;68.48;100664.65;1724711;81;27488;-62
2022/07/31 05:16:54;;;;;;;10.43;2.90;;;;;;;22.05;68.60;100670.44;1727796;82;25776;-60
2022/07/31 05:19:22;;;;;;;8.15;2.85;;;;;;;22.10;69.35;100673.36;1735485;82;25756;-62
2022/07/31 05:22:10;;;;;;;11.43;3.33;;;;;;;22.14;69.10;100675.17;1649066;86;26743;-63
2022/07/31 05:24:45;;;;;;;15.48;3.12;;;;;;;22.16;68.18;100667.55;1647806;85;26072;-61
2022/07/31 05:27:12;;;;;;;5.20;2.75;;;;;;;22.14;67.55;100677.37;1684523;82;27666;-61
2022/07/31 05:29:41;;;;;;;9.18;3.12;;;;;;;22.15;67.90;100683.67;1735325;82;25728;-61
2022/07/31 05:32:08;;;;;;;10.68;3.70;;;;;;;22.15;67.90;100681.80;1735547;82;25760;-61
2022/07/31 05:34:36;;;;;;;7.83;3.35;;;;;;;22.17;68.32;100687.05;1735311;81;25802;-61
2022/07/31 05:37:04;;;;;;;13.22;2.65;;;;;;;22.20;68.89;100698.41;1735340;82;26505;-61
2022/07/31 05:39:33;;;;;;;12.45;3.75;;;;;;;22.27;69.83;100697.58;1735286;81;27439;-62
2022/07/31 05:42:11;;;;;;;9.80;3.62;;;;;;;22.32;70.87;100694.47;1648883;85;25919;-61
2022/07/31 05:44:48;;;;;;;7.97;2.65;;;;;;;22.32;71.48;100698.59;1649200;86;25592;-61
2022/07/31 05:47:15;;;;;;;8.23;3.00;;;;;;;22.34;71.86;100697.02;1751850;81;25782;-61
2022/07/31 05:49:43;;;;;;;7.10;3.47;;;;;;;22.28;71.85;100701.97;1733923;81;25605;-61
2022/07/31 05:52:09;;;;;;;12.45;3.15;;;;;;;22.23;72.01;100698.54;1718736;83;27452;-61
2022/07/31 05:54:36;;;;;;;8.45;3.40;;;;;;;22.23;72.94;100701.79;1718822;83;25744;-61
2022/07/31 05:57:20;;;;;;;5.67;2.70;;;;;;;22.26;73.58;100695.34;1747208;81;25655;-61
2022/07/31 05:59:47;;;;;;;7.83;2.92;;;;;;;22.29;74.38;100702.28;1752728;81;25756;-61
2022/07/31 06:02:14;;;;;;;5.78;3.33;;;;;;;22.25;74.05;100703.80;1754159;81;26089;-61
2022/07/31 06:04:58;;;;;;;18.92;4.05;;;;;;;22.18;74.76;100698.33;1753271;80;27669;-61
2022/07/31 06:07:26;;;;;;;11.50;3.75;;;;;;;22.14;75.95;100698.46;1754513;81;25452;-60
2022/07/31 06:09:54;;;;;;;9.58;2.90;;;;;;;22.06;75.69;100698.15;1718372;83;25796;-61
2022/07/31 06:12:21;;;;;;;5.87;3.20;;;;;;;22.01;76.39;100700.67;1718139;83;25766;-60
2022/07/31 06:14:48;;;;;;;6.55;3.40;;;;;;;21.95;76.43;100690.07;1718220;83;25709;-62
2022/07/31 06:17:17;;;;;;;9.80;3.65;;;;;;;21.98;76.46;100690.17;1715833;83;27468;-61
2022/07/31 06:19:45;;;;;;;8.55;3.35;;;;;;;21.95;76.77;100691.44;1712781;83;25804;-61
2022/07/31 06:22:12;;;;;;;4.42;2.98;;;;;;;21.95;76.88;100687.84;1712794;83;25722;-60
2022/07/31 06:24:40;;;;;;;8.60;3.40;;;;;;;21.97;77.19;100683.83;1748840;82;25979;-61
2022/07/31 06:27:07;;;;;;;7.55;2.85;;;;;;;22.05;77.63;100682.77;1748902;82;25740;-61
2022/07/31 06:29:34;;;;;;;12.80;3.12;;;;;;;22.10;77.76;100678.84;1749023;81;27632;-60
2022/07/31 06:32:01;;;;;;;10.78;3.55;;;;;;;22.13;77.71;100683.91;1749022;82;25768;-60
2022/07/31 06:34:28;;;;;;;4.83;2.85;;;;;;;22.20;78.28;100677.87;1748742;82;25782;-60
2022/07/31 06:36:55;;;;;;;15.00;3.22;;;;;;;22.26;78.63;100677.53;1748902;82;26627;-60
2022/07/31 06:39:22;;;;;;;5.78;2.98;;;;;;;22.31;78.64;100669.53;1748762;82;25664;-60
2022/07/31 06:42:03;;;;;;;5.85;3.20;;;;;;;22.29;78.64;100673.00;1697971;81;27501;-61
2022/07/31 06:44:33;;;;;;;4.85;3.05;;;;;;;22.20;78.14;100670.19;1748885;81;25671;-61
2022/07/31 06:47:22;;;;;;;5.72;3.10;;;;;;;22.24;78.78;100666.48;1748862;82;25759;-61
2022/07/31 06:49:58;;;;;;;6.12;3.02;;;;;;;22.25;78.28;100668.17;1748755;82;25813;-61
2022/07/31 06:52:27;;;;;;;14.07;6.12;;;;;;;22.17;77.56;100675.58;1748819;81;25855;-61
2022/07/31 06:54:54;;;;;;;9.50;3.50;;;;;;;22.16;77.71;100668.92;1748859;82;28595;-61
2022/07/31 06:57:21;;;;;;;8.55;3.30;;;;;;;22.23;78.48;100677.13;1749072;82;25708;-61
2022/07/31 06:59:48;;;;;;;8.08;3.33;;;;;;;22.25;78.47;100675.85;1748770;82;25842;-61
2022/07/31 07:02:15;;;;;;;7.37;3.15;;;;;;;22.35;79.02;100683.09;1731453;82;25824;-61
2022/07/31 07:04:43;;;;;;;8.50;3.37;;;;;;;22.44;79.28;100682.36;1729883;82;25642;-61
2022/07/31 07:07:10;;;;;;;7.30;3.20;;;;;;;22.46;78.87;100679.39;1730038;82;27598;-61
2022/07/31 07:09:38;;;;;;;5.10;3.40;;;;;;;22.50;78.88;100674.63;1729753;82;25733;-61
2022/07/31 07:12:06;;;;;;;12.20;3.42;;;;;;;22.59;79.22;100679.86;1730157;82;25740;-61
2022/07/31 07:14:33;;;;;;;7.15;3.35;;;;;;;22.67;79.19;100676.86;1729800;82;25845;-61
2022/07/31 07:17:04;;;;;;;6.37;3.02;;;;;;;22.77;79.35;100681.89;1729509;82;25882;-62
2022/07/31 07:19:32;;;;;;;8.20;3.47;;;;;;;22.84;79.17;100671.72;1724743;83;27445;-62
2022/07/31 07:22:00;;;;;;;7.17;2.80;;;;;;;22.89;79.33;100678.74;1724655;83;26308;-62
2022/07/31 07:24:27;;;;;;;11.05;3.40;;;;;;;22.95;78.94;100675.66;1724743;83;25702;-62
2022/07/31 07:26:56;;;;;;;8.98;3.45;;;;;;;23.02;78.69;100677.81;1724200;82;25864;-61
2022/07/31 07:29:23;;;;;;;6.62;3.27;;;;;;;23.06;78.76;100679.06;1724560;82;25737;-61
2022/07/31 07:31:50;;;;;;;10.23;3.45;;;;;;;23.13;78.98;100674.37;1724351;81;29592;-62
2022/07/31 07:34:17;;;;;;;8.50;3.33;;;;;;;23.23;79.31;100676.64;1724676;82;25690;-62
2022/07/31 07:36:45;;;;;;;6.28;3.02;;;;;;;23.32;79.38;100681.84;1724319;83;25503;-61
2022/07/31 07:39:21;;;;;;;20.97;3.62;;;;;;;23.33;78.82;100685.77;1723116;82;25827;-61
2022/07/31 07:41:48;;;;;;;6.95;3.72;;;;;;;23.41;78.83;100679.99;1724608;81;25726;-62
2022/07/31 07:44:16;;;;;;;5.92;3.70;;;;;;;23.45;78.84;100689.98;1724770;82;27319;-61
2022/07/31 07:46:43;;;;;;;12.00;3.52;;;;;;;23.50;79.17;100686.03;1708647;83;26076;-61
2022/07/31 07:49:12;;;;;;;10.28;3.45;;;;;;;23.53;79.19;100683.39;1699457;83;25520;-61
2022/07/31 07:51:44;;;;;;;10.53;3.42;;;;;;;23.49;78.70;100689.83;1698722;83;25843;-61
2022/07/31 07:54:14;;;;;;;10.53;3.58;;;;;;;23.44;78.08;100682.81;1696383;84;25758;-61
2022/07/31 07:56:51;;;;;;;7.97;3.47;;;;;;;23.43;78.13;100687.99;1637724;87;27481;-61
2022/07/31 07:59:36;;;;;;;6.10;3.27;;;;;;;23.41;78.36;100682.73;1739321;82;25716;-61
2022/07/31 08:02:15;;;;;;;4.75;3.47;;;;;;;23.41;78.67;100684.63;1738017;81;25808;-61
2022/07/31 08:04:42;;;;;;;12.65;3.58;;;;;;;23.40;78.72;100682.42;1705161;84;25776;-61
2022/07/31 08:07:10;;;;;;;12.45;3.95;;;;;;;23.37;77.99;100680.12;1740845;82;25706;-63
2022/07/31 08:09:38;;;;;;;8.50;3.40;;;;;;;23.28;77.62;100682.83;1705204;84;27512;-63
2022/07/31 08:12:14;;;;;;;9.55;4.35;;;;;;;23.25;78.23;100687.41;1740711;82;27180;-61
2022/07/31 08:14:58;;;;;;;3.67;2.58;;;;;;;23.24;78.56;100685.73;1684414;81;25825;-62
2022/07/31 08:17:33;;;;;;;5.78;2.70;;;;;;;23.22;74.83;100687.84;1694869;81;25925;-61
2022/07/31 08:20:00;;;;;;;10.78;3.27;;;;;;;23.19;74.65;100702.00;1718196;83;25552;-62
2022/07/31 08:22:28;;;;;;;7.17;3.05;;;;;;;23.24;74.57;100703.56;1718143;83;28677;-62
2022/07/31 08:24:55;;;;;;;5.78;3.75;;;;;;;23.30;75.32;100699.92;1717955;83;25742;-62
2022/07/31 08:27:23;;;;;;;9.00;3.60;;;;;;;23.35;75.88;100695.13;1718501;83;26389;-62
2022/07/31 08:29:54;;;;;;;8.63;4.20;;;;;;;23.35;76.43;100697.36;1694068;84;25912;-62
2022/07/31 08:32:22;;;;;;;12.43;4.20;;;;;;;23.34;76.49;100701.17;1694101;84;25732;-62
2022/07/31 08:34:56;;;;;;;9.60;3.80;;;;;;;23.35;77.27;100698.73;1676893;83;27671;-62
2022/07/31 08:37:24;;;;;;;7.10;3.60;;;;;;;23.35;77.15;100697.36;1694881;84;25805;-61
2022/07/31 08:39:50;;;;;;;8.65;3.22;;;;;;;23.25;75.18;100697.84;1695235;84;25833;-62
2022/07/31 08:42:18;;;;;;;6.90;3.20;;;;;;;23.32;76.18;100700.55;1718077;83;27865;-62
2022/07/31 08:44:46;;;;;;;6.08;2.80;;;;;;;23.30;75.91;100699.92;1696530;84;25733;-62
2022/07/31 08:47:16;;;;;;;5.67;2.90;;;;;;;23.36;76.60;100708.63;1710880;83;29675;-62
2022/07/31 08:49:48;;;;;;;7.78;2.90;;;;;;;23.41;76.47;100703.33;1718204;83;25701;-62
2022/07/31 08:52:23;;;;;;;6.62;2.95;;;;;;;23.47;76.35;100702.97;1700258;84;25729;-62
2022/07/31 08:54:53;;;;;;;11.93;4.87;;;;;;;23.55;76.93;100702.69;1717624;83;26356;-62
2022/07/31 08:57:22;;;;;;;16.12;6.20;;;;;;;23.58;76.07;100704.95;1693508;84;25755;-62
2022/07/31 08:59:51;;;;;;;12.13;6.00;;;;;;;23.59;75.91;100707.19;1718251;82;27543;-62
2022/07/31 09:02:18;;;;;;;6.08;3.52;;;;;;;23.59;75.78;100704.45;1696880;84;25640;-62
2022/07/31 09:04:48;;;;;;;8.95;4.55;;;;;;;23.60;75.68;100706.12;1715401;83;25852;-62
2022/07/31 09:07:15;;;;;;;11.68;3.12;;;;;;;23.63;76.28;100698.80;1700190;84;26519;-62
2022/07/31 09:09:46;;;;;;;10.78;4.15;;;;;;;23.61;75.38;100700.95;1718286;83;26020;-62
2022/07/31 09:12:13;;;;;;;8.73;4.08;;;;;;;23.62;74.84;100700.41;1700448;84;28151;-62
2022/07/31 09:14:48;;;;;;;11.53;3.85;;;;;;;23.65;75.34;100702.16;1714419;83;26138;-62
2022/07/31 09:17:15;;;;;;;6.33;2.30;;;;;;;23.68;75.16;100698.98;1700343;84;25492;-62
2022/07/31 09:19:46;;;;;;;9.98;2.98;;;;;;;23.65;68.80;100702.16;1706660;83;26883;-62
2022/07/31 09:22:25;;;;;;;11.10;3.95;;;;;;;23.68;68.34;100701.73;1740828;81;25693;-62
2022/07/31 09:25:07;;;;;;;11.80;3.02;;;;;;;23.80;68.44;100699.08;1739440;82;27513;-62
2022/07/31 09:27:34;;;;;;;6.95;3.85;;;;;;;23.91;66.66;100691.98;1738915;82;25477;-62
2022/07/31 09:30:01;;;;;;;11.55;3.83;;;;;;;23.99;66.19;100688.97;1741130;81;25772;-62
2022/07/31 09:32:29;;;;;;;12.03;4.00;;;;;;;24.10;66.40;100694.78;1739117;82;25778;-62
2022/07/31 09:35:11;;;;;;;9.15;3.00;;;;;;;24.22;67.38;100697.91;1740271;81;25764;-62
2022/07/31 09:37:39;;;;;;;13.90;4.10;;;;;;;24.30;67.29;100700.90;1740864;81;27636;-62
2022/07/31 09:40:21;;;;;;;9.47;3.10;;;;;;;24.38;66.81;100701.97;1741002;82;25733;-62
2022/07/31 09:42:49;;;;;;;10.35;2.52;;;;;;;24.45;66.42;100698.28;1738809;82;25734;-62
2022/07/31 09:45:23;;;;;;;8.30;3.75;;;;;;;24.50;64.36;100695.70;1739872;81;25966;-62
2022/07/31 09:48:07;;;;;;;10.10;2.70;;;;;;;24.57;64.48;100692.33;1722559;82;25788;-62
2022/07/31 09:50:34;;;;;;;9.13;3.17;;;;;;;24.57;63.18;100690.95;1738289;82;27495;-63
2022/07/31 09:53:01;;;;;;;7.55;2.85;;;;;;;24.61;61.16;100693.52;1740647;81;25717;-63
2022/07/31 09:55:29;;;;;;;7.95;2.92;;;;;;;24.67;62.12;100686.26;1736287;82;25816;-62
2022/07/31 09:57:59;;;;;;;10.93;3.10;;;;;;;24.73;60.48;100677.13;1740399;82;26047;-62
2022/07/31 10:00:32;;;;;;;7.75;3.35;;;;;;;24.79;60.67;100684.44;1739195;81;26083;-62
2022/07/31 10:03:03;;;;;;;7.90;3.10;;;;;;;24.79;59.36;100682.20;1737604;82;27560;-62
2022/07/31 10:05:30;;;;;;;13.98;3.55;;;;;;;24.76;58.67;100686.82;1740735;81;25737;-62
2022/07/31 10:08:00;;;;;;;11.95;3.80;;;;;;;24.70;58.43;100685.84;1738048;82;25768;-62
2022/07/31 10:10:46;;;;;;;16.37;4.53;;;;;;;24.60;57.99;100694.63;1738314;82;26660;-62
2022/07/31 10:13:18;;;;;;;11.25;3.02;;;;;;;24.32;59.54;100705.64;1739774;81;26136;-62
2022/07/31 10:15:49;;;;;;;19.02;4.47;;;;;;;23.95;59.97;100696.52;1740553;82;27518;-61
2022/07/31 10:18:23;;;;;;;15.25;3.92;;;;;;;23.71;61.36;100710.86;1740744;81;25926;-62
2022/07/31 10:20:55;;;;;;;10.32;4.17;;;;;;;23.54;62.88;100716.61;1751313;81;25800;-62
2022/07/31 10:23:28;;;;;;;11.78;3.72;;;;;;;23.32;63.82;100706.03;1753497;81;26625;-60
2022/07/31 10:26:00;;;;;;;18.10;11.57;;;;;;;23.10;65.43;100695.92;1754185;81;25959;-60
2022/07/31 10:28:28;;;;;;;45.15;27.58;;;;;;;22.90;66.76;100696.06;1754216;81;28465;-61
2022/07/31 10:30:56;;;;;;;13.98;5.15;;;;;;;22.81;68.73;100688.09;1754039;81;25788;-61
2022/07/31 10:33:28;;;;;;;25.05;4.90;;;;;;;22.75;70.87;100687.58;1754100;81;25738;-61
2022/07/31 10:36:08;;;;;;;11.22;4.37;;;;;;;22.77;71.20;100691.48;1709833;81;25910;-62
2022/07/31 10:39:16;;;;;;;15.75;4.37;;;;;;;22.82;72.45;100688.37;1730410;81;27272;-62
2022/07/31 10:42:05;;;;;;;14.87;4.80;;;;;;;22.85;72.61;100687.63;1753659;81;27485;-62
2022/07/31 10:44:38;;;;;;;13.90;4.90;;;;;;;22.82;73.18;100710.86;1740511;80;25906;-62
2022/07/31 10:47:16;;;;;;;16.52;4.28;;;;;;;22.85;73.89;100704.08;1746485;81;25717;-62
2022/07/31 10:50:02;;;;;;;18.75;4.90;;;;;;;22.86;75.53;100697.00;1754176;81;25862;-62
2022/07/31 10:52:36;;;;;;;8.18;4.30;;;;;;;22.92;75.39;100697.52;1754031;81;26009;-62
2022/07/31 10:55:20;;;;;;;14.70;4.53;;;;;;;22.92;76.04;100694.77;1740761;81;27493;-61
2022/07/31 10:58:15;;;;;;;11.53;4.12;;;;;;;22.97;76.16;100688.63;1692523;82;25582;-60
2022/07/31 11:00:46;;;;;;;12.68;3.87;;;;;;;22.88;74.88;100682.55;1721494;81;25747;-61
2022/07/31 11:03:22;;;;;;;8.78;4.00;;;;;;;22.81;74.16;100670.78;1734111;82;25835;-61
2022/07/31 11:06:00;;;;;;;8.55;2.98;;;;;;;22.79;73.57;100664.16;1732521;82;25783;-62
2022/07/31 11:08:51;;;;;;;6.10;3.22;;;;;;;22.77;73.79;100656.67;1735188;82;27463;-62
2022/07/31 11:11:38;;;;;;;6.28;3.25;;;;;;;22.78;73.12;100646.53;1648778;85;33045;-61
2022/07/31 11:14:07;;;;;;;8.58;3.62;;;;;;;22.88;73.36;100652.38;1621413;87;25802;-62
2022/07/31 11:16:54;;;;;;;7.80;3.50;;;;;;;22.95;73.24;100652.34;1685096;81;25879;-62
2022/07/31 11:19:43;;;;;;;72.95;51.63;;;;;;;23.09;73.46;100644.85;1733452;82;25822;-62
2022/07/31 11:22:16;;;;;;;54.98;43.48;;;;;;;23.24;74.00;100642.64;1735318;82;27463;-62
2022/07/31 11:24:54;;;;;;;10.95;7.28;;;;;;;23.40;74.30;100649.48;1735556;82;25901;-62
2022/07/31 11:27:32;;;;;;;15.00;7.37;;;;;;;23.49;74.05;100650.58;1735381;81;25606;-62
2022/07/31 11:30:05;;;;;;;7.97;3.92;;;;;;;23.59;74.12;100659.14;1735454;81;25882;-62
2022/07/31 11:32:32;;;;;;;5.80;3.50;;;;;;;23.63;73.92;100660.35;1735435;82;31865;-62
2022/07/31 11:35:00;;;;;;;13.83;3.35;;;;;;;23.63;72.93;100669.14;1735015;81;28495;-62
2022/07/31 11:37:30;;;;;;;6.70;3.92;;;;;;;23.61;73.09;100666.63;1735145;82;25702;-61
2022/07/31 11:39:58;;;;;;;10.45;3.22;;;;;;;23.63;72.71;100668.59;1735285;82;25542;-62